Time;durP1;ratioP1;P1;durP2;ratioP2;P2;SDS_P1;SDS_P2;PMS_P1;PMS_P2;Temp;Humidity;BMP_temperature;BMP_pressure;BME280_temperature;BME280_humidity;BME280_pressure;Samples;Min_cycle;Max_cycle;Signal;HPM_P1;HPM_P2
2021/07/22 00:00:55;;;;;;;24.43;19.33;;;;;;;18.62;91.53;102171.75;5216193;28;20040;-66
2021/07/22 00:03:26;;;;;;;23.33;19.30;;;;;;;18.57;91.29;102166.06;5213456;28;20492;-66
2021/07/22 00:05:59;;;;;;;24.60;19.30;;;;;;;18.57;91.66;102163.41;5214019;28;20380;-65
2021/07/22 00:08:30;;;;;;;25.05;19.65;;;;;;;18.50;92.39;102167.66;5215991;28;20079;-66
2021/07/22 00:11:01;;;;;;;24.70;18.70;;;;;;;18.48;92.27;102163.31;5215325;28;20076;-66
2021/07/22 00:13:33;;;;;;;25.58;19.05;;;;;;;18.47;92.57;102171.44;5213364;28;20032;-66
2021/07/22 00:16:04;;;;;;;22.40;18.03;;;;;;;18.43;92.83;102165.59;5215360;28;20487;-66
2021/07/22 00:18:36;;;;;;;24.65;19.17;;;;;;;18.37;92.28;102170.66;5217792;28;20053;-66
2021/07/22 00:21:07;;;;;;;24.87;18.17;;;;;;;18.34;93.01;102169.16;5214376;28;20026;-66
2021/07/22 00:23:39;;;;;;;23.40;18.93;;;;;;;18.26;93.26;102162.91;5217843;28;20022;-66
2021/07/22 00:26:10;;;;;;;24.03;18.97;;;;;;;18.21;94.25;102163.34;5217784;28;20033;-65
2021/07/22 00:28:42;;;;;;;28.05;20.17;;;;;;;18.14;94.66;102163.09;5219044;28;20755;-66
2021/07/22 00:31:13;;;;;;;25.77;19.53;;;;;;;18.11;94.90;102163.41;5220117;28;20038;-66
2021/07/22 00:33:44;;;;;;;27.00;19.77;;;;;;;18.08;95.47;102165.53;5221390;28;20033;-65
2021/07/22 00:36:16;;;;;;;25.87;19.67;;;;;;;17.99;95.58;102161.91;5220315;28;20032;-66
2021/07/22 00:38:49;;;;;;;25.15;20.27;;;;;;;17.96;96.50;102162.22;5220313;28;20077;-66
2021/07/22 00:41:20;;;;;;;29.90;21.13;;;;;;;17.95;95.46;102150.75;5221074;28;20505;-66
2021/07/22 00:43:52;;;;;;;26.43;19.60;;;;;;;18.02;95.56;102152.84;5221149;28;20101;-65
2021/07/22 00:46:23;;;;;;;29.13;20.73;;;;;;;18.00;95.17;102153.00;5220492;28;20031;-66
2021/07/22 00:48:54;;;;;;;26.05;20.33;;;;;;;17.93;95.70;102157.22;5216727;28;20546;-66
2021/07/22 00:51:25;;;;;;;26.07;20.10;;;;;;;17.85;96.01;102152.63;5220209;28;20021;-66
2021/07/22 00:53:57;;;;;;;23.00;19.50;;;;;;;17.83;96.33;102151.09;5221814;28;20490;-66
2021/07/22 00:56:28;;;;;;;25.85;20.35;;;;;;;17.77;96.91;102147.22;5215614;28;20057;-66
2021/07/22 00:59:02;;;;;;;25.38;19.23;;;;;;;17.77;97.28;102149.03;5218977;28;20037;-65
2021/07/22 01:01:34;;;;;;;28.30;21.77;;;;;;;17.65;96.90;102149.19;5219203;28;20029;-66
2021/07/22 01:04:05;;;;;;;28.73;21.85;;;;;;;17.69;97.61;102141.75;5219133;28;20024;-66
2021/07/22 01:06:36;;;;;;;26.87;20.83;;;;;;;17.62;97.60;102149.47;5218672;28;20034;-68
2021/07/22 01:09:07;;;;;;;27.83;21.77;;;;;;;17.56;98.16;102146.56;5217453;28;20033;-69
2021/07/22 01:11:39;;;;;;;27.15;21.92;;;;;;;17.52;98.33;102148.66;5219474;28;20029;-69
2021/07/22 01:14:10;;;;;;;26.63;20.10;;;;;;;17.48;98.51;102150.75;5219352;28;20061;-69
2021/07/22 01:16:41;;;;;;;27.90;21.50;;;;;;;17.43;99.10;102145.06;5218138;28;20060;-69
2021/07/22 01:19:12;;;;;;;28.08;21.08;;;;;;;17.43;99.28;102149.53;5219561;28;20403;-69
2021/07/22 01:21:44;;;;;;;31.80;22.00;;;;;;;17.39;99.01;102142.84;5217949;28;20032;-69
2021/07/22 01:24:15;;;;;;;31.25;22.02;;;;;;;17.35;99.45;102144.97;5220179;28;20033;-69
2021/07/22 01:26:46;;;;;;;30.65;20.95;;;;;;;17.34;100.00;102137.13;5220066;28;20385;-66
2021/07/22 01:29:17;;;;;;;27.17;21.40;;;;;;;17.26;100.00;102137.84;5216540;28;20468;-66
2021/07/22 01:31:49;;;;;;;30.88;22.58;;;;;;;17.26;100.00;102138.69;5215131;28;20159;-66
2021/07/22 01:34:20;;;;;;;28.02;22.02;;;;;;;17.24;100.00;102142.47;5216931;28;20022;-66
2021/07/22 01:36:51;;;;;;;30.40;21.98;;;;;;;17.19;100.00;102136.75;5209845;28;20054;-66
2021/07/22 01:39:23;;;;;;;29.75;22.08;;;;;;;17.15;100.00;102143.31;5216396;28;20056;-66
2021/07/22 01:41:54;;;;;;;28.20;21.73;;;;;;;17.15;100.00;102135.34;5215271;28;20018;-66
2021/07/22 01:44:25;;;;;;;30.70;22.55;;;;;;;17.09;100.00;102139.41;5215778;28;20048;-66
2021/07/22 01:46:56;;;;;;;35.92;23.35;;;;;;;17.02;100.00;102140.94;5219426;28;20214;-66
2021/07/22 01:49:28;;;;;;;29.15;21.05;;;;;;;17.01;100.00;102132.19;5216612;28;20369;-66
2021/07/22 01:52:00;;;;;;;29.83;22.90;;;;;;;16.97;100.00;102127.28;5220517;28;20398;-66
2021/07/22 01:54:32;;;;;;;30.67;23.40;;;;;;;16.93;100.00;102125.91;5219046;28;20036;-66
2021/07/22 01:57:03;;;;;;;32.88;23.98;;;;;;;16.92;100.00;102135.66;5216693;28;20042;-66
2021/07/22 01:59:37;;;;;;;31.20;23.27;;;;;;;16.92;100.00;102140.13;5216241;28;20116;-66
2021/07/22 02:02:10;;;;;;;30.65;22.10;;;;;;;16.87;100.00;102139.72;5214923;28;20029;-66
2021/07/22 02:04:42;;;;;;;28.35;24.00;;;;;;;16.88;100.00;102144.03;5214687;28;20715;-66
2021/07/22 02:07:14;;;;;;;29.90;24.63;;;;;;;16.86;100.00;102138.00;5217518;28;20163;-66
2021/07/22 02:09:45;;;;;;;31.52;23.45;;;;;;;16.80;100.00;102131.47;5217842;28;20076;-66
2021/07/22 02:12:16;;;;;;;27.58;22.38;;;;;;;16.77;100.00;102139.69;5220518;28;20028;-66
2021/07/22 02:14:50;;;;;;;29.30;23.30;;;;;;;16.65;100.00;102143.44;5215165;28;20080;-66
2021/07/22 02:17:21;;;;;;;28.35;23.60;;;;;;;16.69;100.00;102135.06;5214788;28;20116;-66
2021/07/22 02:19:53;;;;;;;31.53;23.17;;;;;;;16.69;100.00;102134.22;5216810;28;20394;-66
2021/07/22 02:22:24;;;;;;;33.40;24.13;;;;;;;16.66;100.00;102135.34;5215253;28;20806;-66
2021/07/22 02:24:55;;;;;;;34.47;24.92;;;;;;;16.69;100.00;102137.72;5216336;28;20021;-66
2021/07/22 02:27:26;;;;;;;31.60;22.95;;;;;;;16.67;100.00;102130.91;5217638;28;20783;-66
2021/07/22 02:29:58;;;;;;;33.97;24.70;;;;;;;16.68;100.00;102136.03;5216452;28;20025;-66
2021/07/22 02:32:30;;;;;;;33.42;24.88;;;;;;;16.64;100.00;102133.81;5215838;28;20125;-66
2021/07/22 02:35:02;;;;;;;33.92;25.15;;;;;;;16.63;100.00;102133.00;5216620;28;20079;-66
2021/07/22 02:37:33;;;;;;;33.50;24.63;;;;;;;16.58;100.00;102142.31;5218715;28;20033;-66
2021/07/22 02:40:05;;;;;;;35.67;24.23;;;;;;;16.55;100.00;102132.81;5217596;28;20033;-66
2021/07/22 02:42:36;;;;;;;37.72;26.00;;;;;;;16.56;100.00;102134.50;5217314;28;20324;-66
2021/07/22 02:45:08;;;;;;;31.90;24.67;;;;;;;16.51;100.00;102139.34;5216071;28;20043;-66
2021/07/22 02:47:40;;;;;;;31.97;24.50;;;;;;;16.46;100.00;102137.13;5217177;28;20330;-66
2021/07/22 02:50:11;;;;;;;33.83;24.88;;;;;;;16.46;100.00;102138.94;5213501;28;20362;-66
2021/07/22 02:52:43;;;;;;;30.50;23.40;;;;;;;16.38;100.00;102138.78;5217036;28;20296;-66
2021/07/22 02:55:14;;;;;;;32.58;25.27;;;;;;;16.34;100.00;102135.59;5217642;28;20550;-66
2021/07/22 02:57:45;;;;;;;29.30;23.90;;;;;;;16.34;100.00;102145.34;5214460;28;20033;-66
2021/07/22 03:00:17;;;;;;;34.28;24.13;;;;;;;16.33;100.00;102141.84;5215739;28;20064;-66
2021/07/22 03:02:48;;;;;;;31.73;24.02;;;;;;;16.32;100.00;102136.69;5215456;28;20079;-66
2021/07/22 03:05:19;;;;;;;34.33;25.33;;;;;;;16.29;100.00;102138.66;5213730;28;20044;-66
2021/07/22 03:07:50;;;;;;;36.17;24.70;;;;;;;16.29;100.00;102143.09;5215759;28;20418;-66
2021/07/22 03:10:23;;;;;;;35.17;25.15;;;;;;;16.30;100.00;102137.66;5216957;28;20022;-66
2021/07/22 03:12:54;;;;;;;35.13;25.23;;;;;;;16.36;100.00;102146.00;5217374;28;20037;-66
2021/07/22 03:15:25;;;;;;;34.33;25.88;;;;;;;16.32;100.00;102137.53;5213943;28;20029;-66
2021/07/22 03:17:57;;;;;;;39.28;25.40;;;;;;;16.29;100.00;102135.16;5214006;28;20120;-66
2021/07/22 03:20:28;;;;;;;33.90;25.10;;;;;;;16.27;100.00;102134.44;5214865;28;20291;-66
2021/07/22 03:23:03;;;;;;;33.45;26.13;;;;;;;16.30;100.00;102136.84;5214671;28;20087;-66
2021/07/22 03:25:36;;;;;;;32.55;23.60;;;;;;;16.26;100.00;102132.78;5217333;28;20036;-66
2021/07/22 03:28:07;;;;;;;31.95;24.08;;;;;;;16.14;100.00;102134.72;5216978;28;20037;-66
2021/07/22 03:30:42;;;;;;;32.97;24.05;;;;;;;16.21;100.00;102137.63;5216162;28;20026;-66
2021/07/22 03:33:13;;;;;;;32.00;24.48;;;;;;;16.15;100.00;102138.19;5213703;28;20072;-66
2021/07/22 03:35:44;;;;;;;36.28;26.88;;;;;;;16.11;100.00;102142.91;5219453;28;20269;-66
2021/07/22 03:38:16;;;;;;;33.08;25.48;;;;;;;16.11;100.00;102139.44;5216404;28;20353;-66
2021/07/22 03:40:47;;;;;;;36.13;25.58;;;;;;;16.09;100.00;102136.91;5213580;28;20112;-66
2021/07/22 03:43:18;;;;;;;37.45;25.50;;;;;;;16.02;100.00;102133.97;5217399;28;20028;-66
2021/07/22 03:45:59;;;;;;;31.45;23.65;;;;;;;16.11;100.00;102137.63;5217426;28;20041;-66
2021/07/22 03:48:30;;;;;;;33.70;25.20;;;;;;;16.01;100.00;102132.28;5216681;28;20076;-66
2021/07/22 03:51:01;;;;;;;32.45;25.17;;;;;;;16.00;100.00;102135.91;5214910;28;20030;-66
2021/07/22 03:53:33;;;;;;;37.35;25.02;;;;;;;15.95;100.00;102139.94;5215056;28;20068;-66
2021/07/22 03:56:04;;;;;;;37.72;25.75;;;;;;;15.97;100.00;102133.53;5217051;28;20427;-66
2021/07/22 03:58:35;;;;;;;35.97;24.83;;;;;;;15.95;100.00;102130.19;5214902;28;20440;-66
2021/07/22 04:01:07;;;;;;;33.20;25.02;;;;;;;15.93;100.00;102131.28;5208930;28;20041;-66
2021/07/22 04:03:38;;;;;;;37.45;24.48;;;;;;;15.92;100.00;102134.91;5213570;28;20025;-66
2021/07/22 04:06:10;;;;;;;31.08;23.83;;;;;;;15.91;100.00;102134.09;5215456;28;20034;-66
2021/07/22 04:08:42;;;;;;;35.65;24.55;;;;;;;15.93;100.00;102131.28;5215121;28;20022;-66
2021/07/22 04:11:13;;;;;;;37.67;24.43;;;;;;;15.92;100.00;102134.91;5211938;28;20068;-66
2021/07/22 04:13:44;;;;;;;32.25;23.77;;;;;;;15.94;100.00;102132.97;5213726;28;20658;-66
2021/07/22 04:16:15;;;;;;;33.70;24.20;;;;;;;15.95;100.00;102132.00;5215215;28;20033;-66
2021/07/22 04:18:47;;;;;;;36.15;24.83;;;;;;;15.91;100.00;102138.50;5217540;28;20025;-66
2021/07/22 04:21:18;;;;;;;31.60;24.30;;;;;;;15.98;100.00;102135.19;5215377;28;20113;-66
2021/07/22 04:23:49;;;;;;;33.83;24.25;;;;;;;15.97;100.00;102137.97;5213873;28;20068;-66
2021/07/22 04:26:21;;;;;;;35.83;24.80;;;;;;;15.97;100.00;102135.34;5212241;28;20037;-66
2021/07/22 04:28:52;;;;;;;32.00;23.23;;;;;;;15.96;100.00;102138.97;5216794;28;20669;-66
2021/07/22 04:31:24;;;;;;;29.83;24.58;;;;;;;15.97;100.00;102140.63;5217099;28;20030;-66
2021/07/22 04:33:55;;;;;;;34.65;24.38;;;;;;;16.01;100.00;102145.50;5213295;28;20029;-66
2021/07/22 04:36:26;;;;;;;33.17;24.40;;;;;;;16.01;100.00;102144.69;5215269;28;20021;-66
2021/07/22 04:38:57;;;;;;;31.07;24.07;;;;;;;16.05;100.00;102148.72;5214611;28;20061;-66
2021/07/22 04:41:29;;;;;;;32.50;24.27;;;;;;;16.09;100.00;102152.75;5214417;28;20284;-66
2021/07/22 04:44:00;;;;;;;30.27;24.27;;;;;;;16.12;100.00;102144.56;5213603;28;20505;-66
2021/07/22 04:46:32;;;;;;;36.88;24.90;;;;;;;16.17;100.00;102146.81;5215688;28;20022;-66
2021/07/22 04:49:03;;;;;;;33.88;23.15;;;;;;;16.15;100.00;102151.41;5215435;28;20034;-66
2021/07/22 04:51:34;;;;;;;33.08;24.35;;;;;;;16.19;100.00;102153.63;5214586;28;20033;-66
2021/07/22 04:54:06;;;;;;;35.58;25.10;;;;;;;16.20;100.00;102150.00;5215093;28;20403;-66
2021/07/22 04:56:37;;;;;;;35.00;24.60;;;;;;;16.24;100.00;102150.59;5213325;28;20268;-66
2021/07/22 04:59:09;;;;;;;32.90;24.33;;;;;;;16.35;100.00;102154.94;5213721;28;20522;-66
2021/07/22 05:01:40;;;;;;;32.75;24.42;;;;;;;16.39;100.00;102153.69;5213421;28;20032;-67
2021/07/22 05:04:17;;;;;;;29.90;23.15;;;;;;;16.40;100.00;102155.34;5218000;28;20076;-67
2021/07/22 05:06:49;;;;;;;34.15;24.42;;;;;;;16.46;100.00;102152.16;5214888;28;20041;-66
2021/07/22 05:09:20;;;;;;;30.08;23.55;;;;;;;16.58;100.00;102159.00;5214217;28;20030;-66
2021/07/22 05:11:51;;;;;;;33.60;23.80;;;;;;;16.54;100.00;102157.63;5217538;28;20040;-66
2021/07/22 05:14:23;;;;;;;32.70;23.67;;;;;;;16.57;100.00;102162.63;5219630;28;20026;-66
2021/07/22 05:16:54;;;;;;;29.38;22.05;;;;;;;16.60;100.00;102162.38;5218457;28;20038;-66
2021/07/22 05:19:25;;;;;;;33.78;24.58;;;;;;;16.65;100.00;102157.50;5219318;28;20573;-66
2021/07/22 05:21:57;;;;;;;32.28;23.55;;;;;;;16.72;100.00;102163.06;5221472;28;20032;-66
2021/07/22 05:24:28;;;;;;;30.40;22.65;;;;;;;16.67;100.00;102155.56;5216494;28;20017;-66
2021/07/22 05:26:59;;;;;;;31.45;24.15;;;;;;;16.71;100.00;102166.69;5214992;28;20285;-67
2021/07/22 05:29:30;;;;;;;32.42;22.15;;;;;;;16.77;100.00;102159.06;5218151;28;20021;-67
2021/07/22 05:32:02;;;;;;;33.28;22.75;;;;;;;16.81;100.00;102158.78;5217606;28;20095;-68
2021/07/22 05:34:33;;;;;;;34.08;23.40;;;;;;;16.81;100.00;102158.78;5221056;28;20040;-67
2021/07/22 05:37:07;;;;;;;31.67;22.53;;;;;;;16.86;100.00;102165.34;5218114;28;20033;-67
2021/07/22 05:39:38;;;;;;;31.65;23.65;;;;;;;16.90;100.00;102169.38;5213884;28;20454;-67
2021/07/22 05:42:09;;;;;;;32.05;23.20;;;;;;;16.94;100.00;102168.13;5214712;28;20475;-67
2021/07/22 05:44:41;;;;;;;36.03;22.63;;;;;;;16.98;100.00;102169.53;5216470;28;20120;-67
2021/07/22 05:47:12;;;;;;;34.22;22.27;;;;;;;17.02;100.00;102154.19;5216450;28;20025;-67
2021/07/22 05:49:44;;;;;;;30.58;22.38;;;;;;;17.06;100.00;102158.22;5218573;28;20522;-67
2021/07/22 05:52:15;;;;;;;30.67;21.48;;;;;;;17.13;100.00;102159.34;5217714;28;20100;-67
2021/07/22 05:54:46;;;;;;;31.23;23.42;;;;;;;17.20;100.00;102159.63;5219479;28;20033;-67
2021/07/22 05:57:17;;;;;;;28.33;22.23;;;;;;;17.27;100.00;102155.41;5214726;28;20036;-67
2021/07/22 05:59:48;;;;;;;30.33;21.08;;;;;;;17.36;100.00;102161.69;5211213;28;20307;-67
2021/07/22 06:02:20;;;;;;;29.17;21.67;;;;;;;17.38;100.00;102160.53;5218877;28;20114;-67
2021/07/22 06:04:51;;;;;;;29.15;21.40;;;;;;;17.45;100.00;102155.50;5215560;28;20034;-66
2021/07/22 06:07:22;;;;;;;28.92;20.98;;;;;;;17.51;100.00;102158.44;5216389;28;20108;-67
2021/07/22 06:09:54;;;;;;;30.52;20.98;;;;;;;17.56;100.00;102157.16;5217273;28;20469;-67
2021/07/22 06:12:29;;;;;;;32.67;21.42;;;;;;;17.64;100.00;102173.19;5219129;28;20060;-67
2021/07/22 06:15:01;;;;;;;29.13;20.98;;;;;;;17.67;100.00;102165.78;5212774;28;20068;-67
2021/07/22 06:17:36;;;;;;;29.50;20.48;;;;;;;17.76;100.00;102166.75;5213164;28;20173;-67
2021/07/22 06:20:08;;;;;;;27.35;19.25;;;;;;;17.81;100.00;102169.00;5211431;28;20503;-67
2021/07/22 06:22:40;;;;;;;25.35;20.08;;;;;;;17.89;100.00;102169.09;5215789;28;20022;-67
2021/07/22 06:25:13;;;;;;;28.45;20.38;;;;;;;17.95;100.00;102166.66;5218399;28;20037;-67
2021/07/22 06:27:44;;;;;;;26.48;21.20;;;;;;;18.02;100.00;102168.75;5213265;28;20018;-67
2021/07/22 06:30:16;;;;;;;26.83;20.33;;;;;;;18.12;100.00;102167.72;5216538;28;20056;-67
2021/07/22 06:32:47;;;;;;;27.00;20.37;;;;;;;18.19;100.00;102171.47;5217409;28;20342;-67
2021/07/22 06:35:18;;;;;;;26.27;19.23;;;;;;;18.32;100.00;102167.63;5215896;28;20032;-67
2021/07/22 06:37:49;;;;;;;27.37;20.30;;;;;;;18.36;100.00;102164.50;5210331;28;20450;-67
2021/07/22 06:40:21;;;;;;;28.23;20.37;;;;;;;18.43;100.00;102164.75;5217024;28;20042;-67
2021/07/22 06:42:52;;;;;;;27.03;19.37;;;;;;;18.49;100.00;102158.88;5215615;28;20036;-67
2021/07/22 06:45:23;;;;;;;25.40;20.50;;;;;;;18.55;100.00;102163.56;5217088;28;20034;-67
2021/07/22 06:47:55;;;;;;;26.37;19.27;;;;;;;18.65;100.00;102164.31;5214755;28;20076;-67
2021/07/22 06:50:26;;;;;;;24.13;19.03;;;;;;;18.75;100.00;102160.78;5208628;28;20434;-67
2021/07/22 06:52:57;;;;;;;27.07;19.37;;;;;;;18.83;100.00;102168.84;5216425;28;20109;-67
2021/07/22 06:55:29;;;;;;;23.50;17.90;;;;;;;18.87;100.00;102172.88;5216148;28;20025;-67
2021/07/22 06:58:08;;;;;;;24.17;18.20;;;;;;;18.96;100.00;102166.63;5215415;28;20029;-67
2021/07/22 07:00:39;;;;;;;23.20;18.20;;;;;;;19.06;100.00;102167.38;5216235;28;20029;-67
2021/07/22 07:03:11;;;;;;;26.30;18.40;;;;;;;19.09;100.00;102164.44;5216525;28;20079;-67
2021/07/22 07:05:42;;;;;;;28.30;17.33;;;;;;;19.20;100.00;102165.97;5216015;28;20077;-67
2021/07/22 07:08:13;;;;;;;21.23;17.20;;;;;;;19.30;100.00;102157.94;5207653;28;20423;-67
2021/07/22 07:10:44;;;;;;;21.30;15.67;;;;;;;19.43;100.00;102164.50;5216080;28;20609;-67
2021/07/22 07:13:16;;;;;;;21.33;15.90;;;;;;;19.41;100.00;102169.13;5215588;28;20033;-67
2021/07/22 07:15:47;;;;;;;23.07;16.63;;;;;;;19.52;100.00;102170.72;5214232;28;20273;-67
2021/07/22 07:18:18;;;;;;;20.90;15.67;;;;;;;19.60;100.00;102172.59;5217719;28;20069;-67
2021/07/22 07:20:49;;;;;;;21.47;15.70;;;;;;;19.73;100.00;102172.19;5215907;28;21870;-67
2021/07/22 07:23:21;;;;;;;24.60;15.93;;;;;;;19.75;100.00;102175.53;5212618;28;20040;-67
2021/07/22 07:25:52;;;;;;;18.77;15.03;;;;;;;19.86;100.00;102177.91;5215451;28;20112;-67
2021/07/22 07:28:23;;;;;;;21.77;15.17;;;;;;;19.95;100.00;102176.94;5216621;28;20041;-67
2021/07/22 07:30:55;;;;;;;17.03;14.77;;;;;;;19.92;100.00;102180.75;5213935;28;20088;-67
2021/07/22 07:33:28;;;;;;;17.47;14.70;;;;;;;19.93;100.00;102182.44;5215685;28;20503;-67
2021/07/22 07:35:59;;;;;;;18.58;15.90;;;;;;;19.89;100.00;102181.09;5217689;28;20021;-67
2021/07/22 07:38:30;;;;;;;22.50;14.20;;;;;;;20.02;100.00;102174.50;5214319;28;20427;-67
2021/07/22 07:41:02;;;;;;;21.37;14.77;;;;;;;20.01;99.80;102186.13;5211408;28;20371;-67
2021/07/22 07:43:33;;;;;;;21.23;14.87;;;;;;;20.03;99.69;102184.97;5214513;28;20609;-67
2021/07/22 07:46:04;;;;;;;20.77;14.70;;;;;;;20.15;100.00;102191.69;5214099;28;20097;-67
2021/07/22 07:48:36;;;;;;;20.40;14.53;;;;;;;20.23;100.00;102182.91;5216570;28;20025;-67
2021/07/22 07:51:09;;;;;;;17.47;13.20;;;;;;;20.34;96.86;102185.28;5202790;28;20030;-67
2021/07/22 07:53:40;;;;;;;19.45;13.60;;;;;;;20.40;98.09;102189.09;5213987;28;20049;-67
2021/07/22 07:56:11;;;;;;;20.60;14.47;;;;;;;20.50;98.16;102183.69;5212749;28;20025;-67
2021/07/22 07:58:42;;;;;;;17.60;13.63;;;;;;;20.61;96.96;102186.84;5216325;28;20026;-67
2021/07/22 08:01:14;;;;;;;17.73;13.40;;;;;;;20.89;97.30;102183.91;5217283;28;20064;-67
2021/07/22 08:03:45;;;;;;;18.07;13.57;;;;;;;21.00;95.10;102180.91;5211232;28;20026;-67
2021/07/22 08:06:16;;;;;;;16.07;11.90;;;;;;;21.08;94.21;102182.72;5217419;28;20359;-67
2021/07/22 08:08:48;;;;;;;17.10;12.80;;;;;;;21.08;92.84;102172.91;5216502;28;20036;-67
2021/07/22 08:11:19;;;;;;;19.40;13.80;;;;;;;21.04;93.55;102176.06;5215734;28;20049;-67
2021/07/22 08:13:50;;;;;;;15.57;13.27;;;;;;;21.31;92.62;102178.38;5212095;28;20036;-67
2021/07/22 08:16:22;;;;;;;16.13;12.93;;;;;;;21.45;91.82;102181.41;5215076;28;20029;-67
2021/07/22 08:18:53;;;;;;;18.07;13.50;;;;;;;21.44;91.42;102179.72;5216053;28;20034;-67
2021/07/22 08:21:24;;;;;;;18.83;13.97;;;;;;;21.51;90.36;102180.72;5213344;28;20075;-67
2021/07/22 08:23:56;;;;;;;19.57;13.67;;;;;;;21.76;91.02;102170.84;5213518;28;20025;-67
2021/07/22 08:26:27;;;;;;;18.53;13.73;;;;;;;21.86;91.04;102180.31;5213517;28;20030;-67
2021/07/22 08:28:58;;;;;;;19.40;13.53;;;;;;;21.90;89.33;102172.78;5215027;28;20025;-67
2021/07/22 08:31:30;;;;;;;20.77;15.20;;;;;;;21.81;89.48;102176.47;5214591;28;20030;-67
2021/07/22 08:34:01;;;;;;;20.57;13.67;;;;;;;21.69;88.63;102176.00;5213767;28;20467;-67
2021/07/22 08:36:32;;;;;;;20.37;12.93;;;;;;;21.73;88.55;102177.34;5216217;28;20356;-67
2021/07/22 08:39:04;;;;;;;17.63;13.47;;;;;;;21.67;88.27;102178.03;5213983;28;20046;-67
2021/07/22 08:41:35;;;;;;;23.87;13.80;;;;;;;21.68;88.92;102184.19;5211660;28;20116;-67
2021/07/22 08:44:08;;;;;;;15.30;12.70;;;;;;;21.75;88.59;102180.69;5216820;28;21279;-67
2021/07/22 08:46:45;;;;;;;15.05;12.23;;;;;;;21.75;86.52;102174.50;5219130;28;20534;-67
2021/07/22 08:49:17;;;;;;;15.68;12.07;;;;;;;21.67;86.62;102174.50;5220561;28;20053;-67
2021/07/22 08:51:49;;;;;;;14.70;12.13;;;;;;;21.61;88.74;102186.72;5217787;28;20113;-68
2021/07/22 08:54:21;;;;;;;;;;;;;;;22.00;88.42;102184.06;5212719;28;20033;-67
2021/07/22 08:56:55;;;;;;;17.77;12.83;;;;;;;22.03;87.91;102173.06;5218666;28;19957;-67
2021/07/22 08:59:29;;;;;;;16.42;12.27;;;;;;;22.33;88.17;102173.28;5212893;28;20292;-67
2021/07/22 09:02:01;;;;;;;16.00;11.80;;;;;;;22.48;84.70;102168.84;5217224;28;20056;-67
2021/07/22 09:04:57;;;;;;;16.52;10.88;;;;;;;22.79;83.21;102166.13;5217742;28;20124;-67
2021/07/22 09:07:29;;;;;;;15.60;11.45;;;;;;;22.97;82.81;102171.22;5219009;28;20037;-67
2021/07/22 09:10:03;;;;;;;12.90;10.98;;;;;;;23.12;84.30;102173.09;5218537;28;20038;-67
2021/07/22 09:12:52;;;;;;;13.60;10.90;;;;;;;23.26;83.11;102172.28;5216463;28;20497;-67
2021/07/22 09:15:29;;;;;;;13.68;10.57;;;;;;;23.41;81.93;102169.63;5219475;28;20454;-67
2021/07/22 09:18:28;;;;;;;16.95;11.07;;;;;;;23.30;80.94;102166.41;5213070;28;20034;-66
2021/07/22 09:21:17;;;;;;;15.77;10.63;;;;;;;;;;5212923;28;20104;-68
2021/07/22 09:24:06;;;;;;;13.07;10.30;;;;;;;23.21;79.74;102172.00;5216942;28;20041;-67
2021/07/22 09:26:39;;;;;;;13.45;9.90;;;;;;;23.09;79.35;102168.09;5204872;28;20030;-67
2021/07/22 09:29:12;;;;;;;13.27;11.15;;;;;;;22.93;79.76;102164.56;5211993;28;20065;-67
2021/07/22 09:31:44;;;;;;;12.05;9.52;;;;;;;22.78;79.20;102169.81;5216721;28;20120;-67
2021/07/22 09:34:26;;;;;;;13.25;9.02;;;;;;;22.68;79.15;102173.72;5220698;28;20476;-67
2021/07/22 09:37:07;;;;;;;12.65;9.80;;;;;;;22.70;78.64;102172.56;5219598;28;20040;-66
2021/07/22 09:39:38;;;;;;;12.65;9.60;;;;;;;22.82;78.16;102170.31;5215639;28;20041;-67
2021/07/22 09:42:10;;;;;;;11.23;8.30;;;;;;;23.21;75.07;102172.81;5209559;28;20744;-66
2021/07/22 09:44:41;;;;;;;10.80;8.10;;;;;;;23.28;74.97;102172.94;5210299;28;20018;-67
2021/07/22 09:47:26;;;;;;;11.60;8.60;;;;;;;23.62;75.93;102164.41;5213758;28;20120;-67
2021/07/22 09:50:07;;;;;;;13.07;8.63;;;;;;;23.83;75.38;102177.06;5206706;28;20121;-67
2021/07/22 09:52:38;;;;;;;10.18;8.55;;;;;;;23.79;72.04;102173.13;5213107;28;20096;-68
2021/07/22 09:55:23;;;;;;;12.03;8.87;;;;;;;23.96;73.24;102169.22;5214505;28;20029;-69
2021/07/22 09:57:57;;;;;;;10.10;8.45;;;;;;;24.13;72.08;102161.81;5209754;28;20042;-67
2021/07/22 10:00:30;;;;;;;10.68;8.00;;;;;;;24.44;72.48;102168.78;5216436;28;20026;-67
2021/07/22 10:03:03;;;;;;;10.98;8.88;;;;;;;24.45;70.14;102162.41;5216238;28;20017;-67
2021/07/22 10:05:40;;;;;;;11.50;8.07;;;;;;;24.36;69.86;102161.66;5216022;28;20442;-67
2021/07/22 10:08:23;;;;;;;8.80;7.57;;;;;;;24.47;71.97;102163.88;5217220;28;20025;-67
2021/07/22 10:10:56;;;;;;;10.55;7.90;;;;;;;24.47;68.93;102161.19;5215475;28;20033;-67
2021/07/22 10:13:32;;;;;;;9.73;7.15;;;;;;;24.72;69.02;102158.13;5216698;28;20117;-67
2021/07/22 10:16:09;;;;;;;8.93;6.40;;;;;;;24.90;68.63;102153.16;5217893;28;20033;-68
2021/07/22 10:18:46;;;;;;;7.50;5.70;;;;;;;24.90;65.67;102160.34;5213028;28;20040;-67
2021/07/22 10:21:18;;;;;;;9.50;6.70;;;;;;;24.85;63.22;102158.25;5218723;28;20447;-68
2021/07/22 10:23:49;;;;;;;9.73;6.63;;;;;;;25.08;67.13;102154.50;5220228;28;20155;-67
2021/07/22 10:26:24;;;;;;;10.77;8.47;;;;;;;25.15;68.33;102156.25;5214528;28;20030;-68
2021/07/22 10:28:55;;;;;;;10.93;8.80;;;;;;;24.95;68.93;102145.34;5212129;28;20110;-68
2021/07/22 10:31:27;;;;;;;11.10;8.57;;;;;;;25.07;69.45;102158.22;5209037;28;20025;-68
2021/07/22 10:33:59;;;;;;;9.90;7.13;;;;;;;25.38;66.61;102150.66;5208265;28;20042;-68
2021/07/22 10:36:31;;;;;;;;;;;;;;;25.82;67.34;102144.09;5212707;28;20458;-68
2021/07/22 10:39:02;;;;;;;9.65;7.13;;;;;;;25.45;62.85;102140.78;5206813;28;19917;-68
2021/07/22 10:41:36;;;;;;;9.50;7.37;;;;;;;25.59;65.38;102147.06;5211858;28;20033;-68
2021/07/22 10:44:32;;;;;;;9.98;7.55;;;;;;;25.66;67.13;102139.03;5212100;28;20033;-68
2021/07/22 10:47:07;;;;;;;8.95;7.30;;;;;;;25.45;65.18;102145.31;5212124;28;20044;-68
2021/07/22 10:49:41;;;;;;;11.02;8.15;;;;;;;25.26;65.58;102141.47;5208561;28;20025;-68
2021/07/22 10:52:13;;;;;;;10.02;8.05;;;;;;;25.00;67.70;102148.28;5211136;28;20282;-68
2021/07/22 10:54:47;;;;;;;11.52;7.63;;;;;;;24.79;67.25;102142.94;5208611;28;20220;-68
2021/07/22 10:57:35;;;;;;;12.32;7.82;;;;;;;24.75;69.21;102137.13;5213128;28;20115;-68
2021/07/22 11:00:09;;;;;;;11.75;8.15;;;;;;;24.36;65.87;102136.69;5215342;28;20033;-68
2021/07/22 11:02:45;;;;;;;10.43;8.07;;;;;;;24.58;66.62;102142.94;5210999;28;20120;-68
2021/07/22 11:05:23;;;;;;;10.85;7.75;;;;;;;24.62;67.49;102133.50;5214137;28;20029;-68
2021/07/22 11:08:19;;;;;;;11.00;8.30;;;;;;;25.04;66.82;102132.63;5213439;28;20041;-68
2021/07/22 11:11:08;;;;;;;10.65;7.88;;;;;;;25.29;66.27;102133.03;5207231;28;20060;-68
2021/07/22 11:13:47;;;;;;;13.10;7.80;;;;;;;25.51;67.94;102128.44;5214981;28;20054;-68
2021/07/22 11:16:31;;;;;;;10.18;8.18;;;;;;;25.53;68.90;102130.91;5216121;28;20026;-68
2021/07/22 11:19:12;;;;;;;14.98;8.70;;;;;;;25.66;67.32;102128.31;5225331;28;20083;-68
2021/07/22 11:21:50;;;;;;;11.48;8.05;;;;;;;25.72;65.82;102128.34;5207488;28;20021;-68
2021/07/22 11:24:27;;;;;;;9.75;8.02;;;;;;;25.70;63.24;102122.34;5213372;28;20038;-68
2021/07/22 11:26:58;;;;;;;10.30;7.82;;;;;;;25.68;65.29;102126.22;5211407;28;20399;-68
2021/07/22 11:29:29;;;;;;;10.07;7.73;;;;;;;25.65;62.23;102123.97;5205411;28;20037;-68
2021/07/22 11:32:02;;;;;;;10.30;7.33;;;;;;;25.97;64.88;102125.16;5209385;28;20029;-68